createdAt,value
2019-06-01T00:02:17.046Z,4.73
2019-06-01T00:04:45.259Z,4.67
2019-06-01T00:07:12.781Z,5.50
2019-06-01T00:09:43.034Z,6.93
2019-06-01T00:12:10.620Z,5.30
2019-06-01T00:14:39.545Z,5.63
2019-06-01T00:17:07.360Z,6.03
2019-06-01T00:19:34.825Z,6.47
2019-06-01T00:22:02.317Z,4.77
2019-06-01T00:24:31.557Z,8.17
2019-06-01T00:26:59.069Z,5.13
2019-06-01T00:29:26.505Z,6.63
2019-06-01T00:31:53.984Z,6.17
2019-06-01T00:34:21.419Z,5.70
2019-06-01T00:36:49.665Z,4.27
2019-06-01T00:39:17.132Z,7.50
2019-06-01T00:41:48.042Z,5.20
2019-06-01T00:44:16.969Z,9.20
2019-06-01T00:46:44.526Z,9.17
2019-06-01T00:49:13.231Z,7.97
2019-06-01T00:51:40.610Z,6.73
2019-06-01T00:54:08.061Z,7.30
2019-06-01T00:56:35.504Z,7.33
2019-06-01T00:59:03.042Z,5.83
2019-06-01T01:01:30.572Z,6.90
2019-06-01T01:03:58.060Z,5.70
2019-06-01T01:06:26.425Z,6.30
2019-06-01T01:08:55.314Z,6.83
2019-06-01T01:11:23.129Z,6.20
2019-06-01T01:13:51.282Z,8.83
2019-06-01T01:16:19.938Z,7.10
2019-06-01T01:18:47.731Z,8.23
2019-06-01T01:21:17.544Z,7.90
2019-06-01T01:23:46.101Z,6.03
2019-06-01T01:26:13.610Z,7.77
2019-06-01T01:28:41.083Z,7.07
2019-06-01T01:31:13.825Z,6.70
2019-06-01T01:33:38.872Z,9.33
2019-06-01T01:36:08.330Z,8.50
2019-06-01T01:38:35.875Z,8.83
2019-06-01T01:41:03.380Z,6.00
2019-06-01T01:43:31.033Z,5.70
2019-06-01T01:45:58.994Z,11.00
2019-06-01T01:48:26.703Z,6.23
2019-06-01T01:50:54.356Z,5.73
2019-06-01T01:53:23.494Z,5.97
2019-06-01T01:55:51.047Z,6.87
2019-06-01T01:58:18.469Z,8.63
2019-06-01T02:00:49.548Z,8.77
2019-06-01T02:03:17.045Z,5.67
2019-06-01T02:05:44.475Z,3.57
2019-06-01T02:08:14.598Z,7.27
2019-06-01T02:10:42.363Z,10.83
2019-06-01T02:13:09.960Z,9.77
2019-06-01T02:15:41.060Z,6.20
2019-06-01T02:18:10.432Z,4.13
2019-06-01T02:20:41.329Z,9.87
2019-06-01T02:23:10.587Z,3.83
2019-06-01T02:25:38.354Z,6.40
2019-06-01T02:28:05.883Z,5.77
2019-06-01T02:30:34.560Z,4.10
2019-06-01T02:33:04.941Z,7.53
2019-06-01T02:35:32.433Z,8.73
2019-06-01T02:38:19.452Z,9.57
2019-06-01T02:40:46.897Z,6.03
2019-06-01T02:43:14.227Z,7.27
2019-06-01T02:45:41.721Z,9.77
2019-06-01T02:48:09.190Z,6.43
2019-06-01T02:50:36.658Z,11.93
2019-06-01T02:53:04.196Z,5.47
2019-06-01T02:55:31.629Z,4.27
2019-06-01T02:58:00.242Z,9.13
2019-06-01T03:01:06.912Z,7.70
2019-06-01T03:03:34.632Z,6.57
2019-06-01T03:06:03.536Z,6.97
2019-06-01T03:08:33.017Z,7.57
2019-06-01T03:11:02.475Z,7.27
2019-06-01T03:13:32.450Z,9.90
2019-06-01T03:16:03.294Z,8.63
2019-06-01T03:18:33.699Z,5.30
2019-06-01T03:21:05.027Z,9.13
2019-06-01T03:23:34.636Z,8.53
2019-06-01T03:26:04.498Z,7.10
2019-06-01T03:28:37.030Z,6.50
2019-06-01T03:31:06.372Z,7.53
2019-06-01T03:33:33.759Z,10.67
2019-06-01T03:36:02.733Z,8.33
2019-06-01T03:38:32.458Z,9.47
2019-06-01T03:41:00.041Z,5.33
2019-06-01T03:43:27.908Z,6.80
2019-06-01T03:45:55.776Z,9.93
2019-06-01T03:48:23.191Z,5.67
2019-06-01T03:50:50.590Z,6.20
2019-06-01T03:53:18.055Z,5.73
2019-06-01T03:55:45.490Z,6.17
2019-06-01T03:58:12.971Z,5.60
2019-06-01T04:00:40.402Z,5.57
2019-06-01T04:03:07.842Z,6.63
2019-06-01T04:05:35.307Z,5.80
2019-06-01T04:08:03.445Z,6.83
2019-06-01T04:10:31.010Z,6.17
2019-06-01T04:12:58.542Z,6.13
2019-06-01T04:15:26.005Z,5.17
2019-06-01T04:17:53.466Z,5.63
2019-06-01T04:20:20.917Z,6.27
2019-06-01T04:22:48.447Z,5.93
2019-06-01T04:25:15.903Z,4.43
2019-06-01T04:27:43.426Z,6.70
2019-06-01T04:30:11.507Z,6.47
2019-06-01T04:32:49.477Z,5.27
2019-06-01T04:35:09.052Z,5.33
2019-06-01T04:37:36.801Z,4.67
2019-06-01T04:40:05.285Z,6.27
2019-06-01T04:42:33.130Z,9.37
2019-06-01T04:45:00.563Z,4.23
2019-06-01T04:47:28.095Z,4.23
2019-06-01T04:49:55.567Z,4.13
2019-06-01T04:52:23.112Z,5.93
2019-06-01T04:54:52.655Z,3.77
2019-06-01T04:57:20.297Z,5.37
2019-06-01T04:59:47.917Z,4.63
2019-06-01T05:02:20.004Z,7.37
2019-06-01T05:04:49.679Z,3.77
2019-06-01T05:07:19.482Z,6.17
2019-06-01T05:09:58.239Z,4.93
2019-06-01T05:12:26.853Z,3.37
2019-06-01T05:14:55.304Z,3.57
2019-06-01T05:17:27.074Z,6.20
2019-06-01T05:19:54.891Z,4.80
2019-06-01T05:22:25.022Z,3.00
2019-06-01T05:24:52.589Z,4.37
2019-06-01T05:27:21.930Z,5.47
2019-06-01T05:29:50.248Z,3.07
2019-06-01T05:32:19.636Z,3.13
2019-06-01T05:34:55.222Z,5.60
2019-06-01T05:37:24.963Z,3.67
2019-06-01T05:39:52.843Z,4.10
2019-06-01T05:42:20.289Z,3.83
2019-06-01T05:44:47.759Z,3.57
2019-06-01T05:47:16.161Z,2.50
2019-06-01T05:49:44.240Z,4.90
2019-06-01T05:52:12.410Z,4.50
2019-06-01T05:54:39.997Z,3.93
2019-06-01T05:57:07.437Z,3.60
2019-06-01T05:59:35.005Z,4.00
2019-06-01T06:02:02.437Z,3.50
2019-06-01T06:04:29.877Z,5.00
2019-06-01T06:06:57.391Z,2.90
2019-06-01T06:09:24.925Z,7.40
2019-06-01T06:11:53.957Z,4.40
2019-06-01T06:14:22.580Z,5.80
2019-06-01T06:16:50.137Z,2.67
2019-06-01T06:19:20.470Z,4.63
2019-06-01T06:21:46.937Z,4.10
2019-06-01T06:24:14.370Z,3.87
2019-06-01T06:26:41.850Z,4.17
2019-06-01T06:29:09.365Z,5.13
2019-06-01T06:31:36.835Z,2.20
2019-06-01T06:34:04.464Z,3.47
2019-06-01T06:36:32.354Z,3.47
2019-06-01T06:39:00.010Z,3.00
2019-06-01T06:41:27.437Z,4.13
2019-06-01T06:43:55.042Z,3.67
2019-06-01T06:46:22.858Z,5.77
2019-06-01T06:48:50.538Z,2.97
2019-06-01T06:51:19.240Z,4.17
2019-06-01T06:53:46.669Z,6.13
2019-06-01T06:56:14.178Z,4.83
2019-06-01T06:58:41.626Z,4.63
2019-06-01T07:01:12.004Z,2.40
2019-06-01T07:03:38.367Z,4.13
2019-06-01T07:06:05.824Z,3.97
2019-06-01T07:08:33.416Z,8.33
2019-06-01T07:11:01.191Z,4.97
2019-06-01T07:13:28.620Z,3.20
2019-06-01T07:15:56.113Z,4.27
2019-06-01T07:18:23.708Z,2.10
2019-06-01T07:20:51.493Z,3.70
2019-06-01T07:23:19.562Z,4.20
2019-06-01T07:25:46.993Z,2.90
2019-06-01T07:28:14.612Z,4.03
2019-06-01T07:30:50.400Z,2.60
2019-06-01T07:33:11.297Z,2.50
2019-06-01T07:35:38.789Z,3.00
2019-06-01T07:38:06.215Z,3.80
2019-06-01T07:40:33.706Z,2.60
2019-06-01T07:43:01.130Z,5.93
2019-06-01T07:45:29.388Z,4.13
2019-06-01T07:47:57.867Z,5.47
2019-06-01T07:50:25.986Z,3.40
2019-06-01T07:52:54.402Z,4.43
2019-06-01T07:55:23.370Z,3.43
2019-06-01T07:57:50.982Z,2.30
2019-06-01T08:00:18.538Z,3.80
2019-06-01T08:02:46.009Z,2.87
2019-06-01T08:05:13.402Z,7.07
2019-06-01T08:07:40.915Z,3.20
2019-06-01T08:10:08.409Z,3.20
2019-06-01T08:12:36.450Z,2.43
2019-06-01T08:15:04.899Z,3.93
2019-06-01T08:17:32.351Z,4.40
2019-06-01T08:19:59.829Z,5.20
2019-06-01T08:22:27.989Z,3.83
2019-06-01T08:24:55.826Z,3.50
2019-06-01T08:27:24.296Z,3.60
2019-06-01T08:29:51.932Z,3.23
2019-06-01T08:32:20.021Z,2.57
2019-06-01T08:34:47.443Z,4.17
2019-06-01T08:37:15.219Z,3.30
2019-06-01T08:39:46.393Z,6.07
2019-06-01T08:42:13.928Z,3.43
2019-06-01T08:44:41.453Z,4.03
2019-06-01T08:47:09.567Z,4.03
2019-06-01T08:49:37.098Z,3.77
2019-06-01T08:52:04.575Z,5.23
2019-06-01T08:54:32.381Z,4.30
2019-06-01T08:56:59.832Z,4.53
2019-06-01T08:59:28.392Z,3.77
2019-06-01T09:01:55.833Z,4.17
2019-06-01T09:04:24.502Z,7.47
2019-06-01T09:06:51.997Z,4.53
2019-06-01T09:09:19.487Z,5.20
2019-06-01T09:11:46.979Z,6.50
2019-06-01T09:14:14.613Z,7.67
2019-06-01T09:16:42.067Z,5.60
2019-06-01T09:19:11.354Z,5.07
2019-06-01T09:21:41.717Z,4.13
2019-06-01T09:24:09.142Z,5.50
2019-06-01T09:26:36.732Z,5.30
2019-06-01T09:29:04.563Z,6.37
2019-06-01T09:31:32.396Z,4.03
2019-06-01T09:34:00.259Z,4.43
2019-06-01T09:36:28.314Z,4.23
2019-06-01T09:38:55.818Z,5.57
2019-06-01T09:41:23.281Z,4.97
2019-06-01T09:43:50.837Z,3.97
2019-06-01T09:46:18.350Z,5.37
2019-06-01T09:48:45.783Z,5.23
2019-06-01T09:51:13.232Z,5.60
2019-06-01T09:53:40.696Z,4.40
2019-06-01T09:56:08.223Z,3.67
2019-06-01T09:58:36.896Z,4.30
2019-06-01T10:01:05.144Z,4.40
2019-06-01T10:03:32.663Z,4.30
2019-06-01T10:06:02.103Z,4.33
2019-06-01T10:08:29.510Z,6.17
2019-06-01T10:10:57.006Z,4.50
2019-06-01T10:13:24.659Z,3.97
2019-06-01T10:15:56.565Z,4.80
2019-06-01T10:18:26.876Z,4.50
2019-06-01T10:20:53.326Z,4.40
2019-06-01T10:23:20.745Z,3.30
2019-06-01T10:25:48.277Z,3.37
2019-06-01T10:28:15.822Z,5.67
2019-06-01T10:30:43.348Z,4.63
2019-06-01T10:33:10.789Z,3.37
2019-06-01T10:35:38.970Z,4.03
2019-06-01T10:38:06.532Z,6.03
2019-06-01T10:40:35.045Z,2.50
2019-06-01T10:43:02.826Z,3.57
2019-06-01T10:45:33.544Z,3.57
2019-06-01T10:48:00.970Z,2.90
2019-06-01T10:50:28.521Z,3.70
2019-06-01T10:52:56.028Z,3.83
2019-06-01T10:55:23.433Z,3.03
2019-06-01T10:57:50.873Z,3.23
2019-06-01T11:00:36.447Z,3.43
2019-06-01T11:02:48.271Z,3.03
2019-06-01T11:05:15.785Z,4.07
2019-06-01T11:07:43.360Z,3.83
2019-06-01T11:10:11.209Z,3.33
2019-06-01T11:12:39.580Z,3.47
2019-06-01T11:15:07.273Z,5.27
2019-06-01T11:17:34.916Z,3.70
2019-06-01T11:20:02.652Z,3.47
2019-06-01T11:22:30.207Z,4.60
2019-06-01T11:24:57.664Z,4.20
2019-06-01T11:27:25.195Z,4.43
2019-06-01T11:29:52.708Z,4.83
2019-06-01T11:32:20.198Z,6.77
2019-06-01T11:34:47.717Z,5.93
2019-06-01T11:37:17.305Z,8.43
2019-06-01T11:39:44.912Z,7.90
2019-06-01T11:42:12.370Z,7.57
2019-06-01T11:44:40.691Z,7.53
2019-06-01T11:47:09.015Z,7.07
2019-06-01T11:49:36.717Z,7.77
2019-06-01T11:52:06.981Z,8.93
2019-06-01T11:54:35.077Z,7.20
2019-06-01T11:57:03.563Z,9.37
2019-06-01T11:59:30.993Z,9.80
2019-06-01T12:02:02.402Z,7.53
2019-06-01T12:04:33.675Z,6.37
2019-06-01T12:07:16.901Z,6.53
2019-06-01T12:09:37.654Z,9.70
2019-06-01T12:12:10.504Z,7.50
2019-06-01T12:14:40.251Z,8.07
2019-06-01T12:17:10.288Z,8.97
2019-06-01T12:19:47.012Z,7.17
2019-06-01T12:22:16.212Z,6.67
2019-06-01T12:24:47.361Z,6.87
2019-06-01T12:27:14.877Z,6.73
2019-06-01T12:29:45.859Z,5.43
2019-06-01T12:32:13.589Z,6.97
2019-06-01T12:34:41.977Z,7.10
2019-06-01T12:37:13.923Z,7.60
2019-06-01T12:39:42.317Z,7.67
2019-06-01T12:42:10.611Z,7.07
2019-06-01T12:44:39.658Z,6.53
2019-06-01T12:47:07.885Z,6.13
2019-06-01T12:49:36.874Z,7.07
2019-06-01T12:52:04.431Z,5.77
2019-06-01T12:54:32.293Z,6.67
2019-06-01T12:57:00.437Z,7.40
2019-06-01T12:59:30.836Z,6.43
2019-06-01T13:01:58.360Z,6.70
2019-06-01T13:04:25.868Z,6.47
2019-06-01T13:06:54.231Z,7.60
2019-06-01T13:09:24.012Z,7.23
2019-06-01T13:12:11.373Z,6.57
2019-06-01T13:14:39.620Z,9.77
2019-06-01T13:17:08.760Z,9.33
2019-06-01T13:19:36.160Z,7.37
2019-06-01T13:22:26.190Z,6.97
2019-06-01T13:24:55.602Z,6.57
2019-06-01T13:27:23.849Z,6.97
2019-06-01T13:29:55.642Z,7.40
2019-06-01T13:32:23.135Z,7.47
2019-06-01T13:34:51.330Z,7.97
2019-06-01T13:37:19.130Z,7.73
2019-06-01T13:39:52.551Z,8.07
2019-06-01T13:42:15.927Z,7.43
2019-06-01T13:44:43.536Z,8.10
2019-06-01T13:47:10.995Z,8.70
2019-06-01T13:49:38.468Z,8.40
2019-06-01T13:52:05.896Z,8.37
2019-06-01T13:54:33.491Z,8.27
2019-06-01T13:57:00.947Z,9.10
2019-06-01T13:59:28.474Z,9.97
2019-06-01T14:01:55.975Z,9.03
2019-06-01T14:04:23.413Z,11.73
2019-06-01T14:06:51.149Z,11.63
2019-06-01T14:09:21.840Z,10.37
2019-06-01T14:11:49.286Z,11.00
2019-06-01T14:14:16.748Z,9.80
2019-06-01T14:16:45.375Z,10.27
2019-06-01T14:19:13.065Z,13.40
2019-06-01T14:21:40.552Z,10.43
2019-06-01T14:24:08.051Z,10.33
2019-06-01T14:26:35.616Z,11.07
2019-06-01T14:29:03.163Z,11.97
2019-06-01T14:31:30.748Z,14.40
2019-06-01T14:33:58.496Z,14.27
2019-06-01T14:36:26.001Z,14.00
2019-06-01T14:38:56.302Z,15.10
2019-06-01T14:41:22.672Z,14.03
2019-06-01T14:43:51.190Z,13.60
2019-06-01T14:46:19.081Z,12.47
2019-06-01T14:48:47.412Z,12.47
2019-06-01T14:51:15.370Z,12.63
2019-06-01T14:53:42.910Z,13.57
2019-06-01T14:56:10.472Z,12.93
2019-06-01T14:58:37.914Z,14.90
2019-06-01T15:01:05.438Z,14.73
2019-06-01T15:03:32.962Z,12.37
2019-06-01T15:06:00.463Z,13.27
2019-06-01T15:08:27.961Z,10.53
2019-06-01T15:10:58.892Z,12.43
2019-06-01T15:13:26.698Z,11.17
2019-06-01T15:15:55.558Z,13.27
2019-06-01T15:18:23.242Z,14.03
2019-06-01T15:20:53.791Z,11.23
2019-06-01T15:23:21.327Z,13.33
2019-06-01T15:25:50.147Z,11.83
2019-06-01T15:28:18.161Z,13.83
2019-06-01T15:30:46.128Z,13.17
2019-06-01T15:33:13.598Z,11.60
2019-06-01T15:35:41.283Z,11.20
2019-06-01T15:38:08.756Z,13.20
2019-06-01T15:40:36.503Z,12.47
2019-06-01T15:43:04.105Z,15.90
2019-06-01T15:45:31.553Z,19.20
2019-06-01T15:47:59.796Z,16.70
2019-06-01T15:50:27.272Z,11.50
2019-06-01T15:52:55.026Z,10.80
2019-06-01T15:55:22.650Z,10.57
2019-06-01T15:57:49.949Z,9.83
2019-06-01T16:00:17.426Z,8.90
2019-06-01T16:02:45.170Z,9.93
2019-06-01T16:05:12.901Z,10.07
2019-06-01T16:07:40.666Z,8.43
2019-06-01T16:10:08.766Z,9.80
2019-06-01T16:12:36.264Z,8.83
2019-06-01T16:15:04.719Z,10.30
2019-06-01T16:17:32.118Z,9.97
2019-06-01T16:19:59.990Z,6.23
2019-06-01T16:22:27.546Z,7.40
2019-06-01T16:24:56.166Z,8.03
2019-06-01T16:27:23.915Z,5.87
2019-06-01T16:29:51.359Z,6.17
2019-06-01T16:32:18.876Z,5.73
2019-06-01T16:34:46.337Z,8.07
2019-06-01T16:37:13.820Z,9.33
2019-06-01T16:39:41.309Z,10.87
2019-06-01T16:42:08.776Z,9.10
2019-06-01T16:44:36.246Z,6.53
2019-06-01T16:47:04.535Z,7.40
2019-06-01T16:49:31.947Z,8.40
2019-06-01T16:52:01.150Z,7.13
2019-06-01T16:54:28.933Z,6.90
2019-06-01T16:56:56.429Z,10.23
2019-06-01T16:59:24.040Z,8.53
2019-06-01T17:01:51.574Z,9.07
2019-06-01T17:04:19.043Z,9.13
2019-06-01T17:06:46.981Z,9.13
2019-06-01T17:09:14.551Z,7.00
2019-06-01T17:11:42.102Z,11.00
2019-06-01T17:14:09.700Z,7.30
2019-06-01T17:16:37.292Z,10.40
2019-06-01T17:19:05.275Z,8.90
2019-06-01T17:21:38.610Z,14.27
2019-06-01T17:24:06.101Z,11.07
2019-06-01T17:26:33.590Z,15.40
2019-06-01T17:29:02.131Z,9.73
2019-06-01T17:31:29.696Z,11.43
2019-06-01T17:33:58.363Z,10.00
2019-06-01T17:36:25.926Z,9.33
2019-06-01T17:38:53.431Z,9.13
2019-06-01T17:41:20.980Z,8.60
2019-06-01T17:43:48.480Z,12.13
2019-06-01T17:46:16.055Z,12.90
2019-06-01T17:48:43.711Z,14.93
2019-06-01T17:51:11.201Z,10.33
2019-06-01T17:53:38.695Z,17.10
2019-06-01T17:56:06.457Z,10.67
2019-06-01T17:58:34.028Z,12.57
2019-06-01T18:01:01.953Z,12.33
2019-06-01T18:03:29.579Z,14.73
2019-06-01T18:05:57.309Z,13.23
2019-06-01T18:08:24.779Z,10.97
2019-06-01T18:10:54.338Z,10.73
2019-06-01T18:13:22.195Z,14.00
2019-06-01T18:15:51.753Z,14.83
2019-06-01T18:18:19.389Z,12.43
2019-06-01T18:20:47.227Z,12.80
2019-06-01T18:23:14.693Z,15.23
2019-06-01T18:25:42.415Z,13.43
2019-06-01T18:28:18.256Z,15.50
2019-06-01T18:30:39.789Z,15.30
2019-06-01T18:33:09.007Z,13.97
2019-06-01T18:35:36.573Z,11.53
2019-06-01T18:38:05.759Z,15.07
2019-06-01T18:40:33.685Z,12.23
2019-06-01T18:43:05.818Z,14.53
2019-06-01T18:45:33.944Z,12.40
2019-06-01T18:48:01.537Z,13.60
2019-06-01T18:50:29.103Z,17.70
2019-06-01T18:52:56.686Z,18.80
2019-06-01T18:55:27.504Z,14.43
2019-06-01T18:57:57.310Z,14.63
2019-06-01T19:00:25.136Z,13.57
2019-06-01T19:02:59.726Z,18.33
2019-06-01T19:05:27.284Z,13.63
2019-06-01T19:07:57.006Z,14.90
2019-06-01T19:10:31.913Z,17.67
2019-06-01T19:13:07.717Z,17.10
2019-06-01T19:15:35.163Z,16.13
2019-06-01T19:18:02.744Z,15.10
2019-06-01T19:20:33.146Z,16.63
2019-06-01T19:22:59.704Z,14.80
2019-06-01T19:25:27.247Z,18.57
2019-06-01T19:27:54.713Z,19.43
2019-06-01T19:30:54.072Z,14.97
2019-06-01T19:33:21.625Z,14.00
2019-06-01T19:35:49.898Z,16.90
2019-06-01T19:38:19.278Z,13.93
2019-06-01T19:40:47.028Z,18.87
2019-06-01T19:43:15.704Z,20.70
2019-06-01T19:45:43.700Z,15.87
2019-06-01T19:48:12.296Z,18.73
2019-06-01T19:50:42.982Z,15.63
2019-06-01T19:53:10.632Z,16.97
2019-06-01T19:55:38.355Z,17.03
2019-06-01T19:58:07.723Z,21.40
2019-06-01T20:00:35.268Z,24.67
2019-06-01T20:03:02.861Z,16.73
2019-06-01T20:05:30.368Z,18.43
2019-06-01T20:07:57.928Z,14.97
2019-06-01T20:10:25.532Z,16.30
2019-06-01T20:12:52.889Z,16.53
2019-06-01T20:15:21.543Z,14.07
2019-06-01T20:17:49.031Z,20.37
2019-06-01T20:20:19.607Z,19.20
2019-06-01T20:22:47.558Z,17.20
2019-06-01T20:25:17.399Z,16.97
2019-06-01T20:27:45.067Z,19.40
2019-06-01T20:30:13.761Z,14.97
2019-06-01T20:32:41.456Z,17.60
2019-06-01T20:35:08.933Z,17.80
2019-06-01T20:37:36.452Z,15.10
2019-06-01T20:40:05.036Z,17.70
2019-06-01T20:42:33.088Z,14.47
2019-06-01T20:45:00.826Z,16.50
2019-06-01T20:47:28.295Z,15.00
2019-06-01T20:49:55.851Z,12.20
2019-06-01T20:52:23.383Z,16.40
2019-06-01T20:54:50.850Z,17.80
2019-06-01T20:57:19.614Z,18.87
2019-06-01T20:59:47.420Z,17.10
2019-06-01T21:02:15.721Z,19.20
2019-06-01T21:04:43.280Z,15.33
2019-06-01T21:07:10.797Z,15.40
2019-06-01T21:09:38.379Z,12.10
2019-06-01T21:12:05.899Z,14.90
2019-06-01T21:14:34.705Z,15.10
2019-06-01T21:17:02.482Z,16.93
2019-06-01T21:19:29.952Z,15.13
2019-06-01T21:21:57.478Z,18.83
2019-06-01T21:24:25.252Z,19.60
2019-06-01T21:26:52.786Z,16.17
2019-06-01T21:29:20.902Z,17.70
2019-06-01T21:31:48.516Z,18.30
2019-06-01T21:34:17.016Z,16.57
2019-06-01T21:36:44.966Z,18.17
2019-06-01T21:39:12.514Z,20.20
2019-06-01T21:41:40.122Z,19.03
2019-06-01T21:44:07.561Z,17.07
2019-06-01T21:46:35.593Z,18.47
2019-06-01T21:49:03.274Z,14.17
2019-06-01T21:51:30.730Z,17.63
2019-06-01T21:53:58.369Z,16.87
2019-06-01T21:56:26.683Z,15.80
2019-06-01T21:58:54.443Z,15.87
2019-06-01T22:01:22.674Z,15.70
2019-06-01T22:03:50.603Z,14.17
2019-06-01T22:06:19.062Z,14.93
2019-06-01T22:08:52.593Z,18.80
2019-06-01T22:11:17.212Z,11.80
2019-06-01T22:13:44.772Z,18.60
2019-06-01T22:16:12.336Z,16.37
2019-06-01T22:18:39.773Z,15.07
2019-06-01T22:21:07.340Z,16.90
2019-06-01T22:23:34.872Z,18.13
2019-06-01T22:26:02.331Z,15.40
2019-06-01T22:28:29.837Z,11.60
2019-06-01T22:30:57.267Z,12.93
2019-06-01T22:33:24.781Z,17.87
2019-06-01T22:35:52.241Z,16.73
2019-06-01T22:38:19.730Z,15.93
2019-06-01T22:40:47.344Z,15.10
2019-06-01T22:43:14.785Z,15.83
2019-06-01T22:45:42.312Z,17.33
2019-06-01T22:48:09.887Z,14.93
2019-06-01T22:50:37.390Z,17.03
2019-06-01T22:53:04.876Z,15.37
2019-06-01T22:55:32.636Z,18.33
2019-06-01T22:58:02.036Z,16.83
2019-06-01T23:00:29.877Z,19.03
2019-06-01T23:02:57.626Z,17.53
2019-06-01T23:05:25.395Z,17.87
2019-06-01T23:07:52.963Z,17.00
2019-06-01T23:10:24.582Z,17.13
2019-06-01T23:12:49.748Z,16.00
2019-06-01T23:15:17.278Z,20.03
2019-06-01T23:17:44.716Z,19.37
2019-06-01T23:20:12.344Z,22.63
2019-06-01T23:22:39.802Z,15.73
2019-06-01T23:25:07.420Z,15.67
2019-06-01T23:27:34.913Z,17.20
2019-06-01T23:30:02.583Z,12.73
2019-06-01T23:32:30.711Z,17.57
2019-06-01T23:34:58.660Z,18.03
2019-06-01T23:37:26.679Z,16.37
2019-06-01T23:39:54.434Z,15.87
2019-06-01T23:42:23.125Z,16.60
2019-06-01T23:44:50.519Z,14.33
2019-06-01T23:47:17.967Z,16.77
2019-06-01T23:49:45.897Z,14.83
2019-06-01T23:52:13.423Z,16.17
2019-06-01T23:54:40.869Z,17.43
2019-06-01T23:57:08.416Z,18.33
2019-06-01T23:59:35.823Z,14.80
